createdAt,value
2023-02-01T00:00:07.518Z,17.98
2023-02-01T00:02:34.298Z,13.98
2023-02-01T00:05:01.036Z,16.88
2023-02-01T00:07:27.625Z,18.50
2023-02-01T00:09:54.461Z,12.95
2023-02-01T00:12:23.203Z,11.20
2023-02-01T00:14:50.098Z,17.55
2023-02-01T00:17:17.213Z,13.70
2023-02-01T00:19:44.399Z,16.63
2023-02-01T00:22:11.111Z,16.98
2023-02-01T00:24:37.954Z,16.75
2023-02-01T00:27:04.715Z,16.65
2023-02-01T00:29:31.407Z,16.13
2023-02-01T00:31:58.359Z,12.75
2023-02-01T00:34:25.265Z,9.52
2023-02-01T00:36:52.142Z,12.68
2023-02-01T00:39:21.226Z,15.98
2023-02-01T00:41:48.057Z,15.13
2023-02-01T00:44:15.405Z,12.65
2023-02-01T00:46:42.663Z,12.75
2023-02-01T00:49:11.661Z,14.25
2023-02-01T00:51:38.857Z,15.73
2023-02-01T00:54:09.335Z,16.48
2023-02-01T00:56:39.951Z,9.75
2023-02-01T00:59:06.855Z,9.20
2023-02-01T01:01:34.018Z,11.75
2023-02-01T01:04:09.978Z,16.08
2023-02-01T01:06:47.738Z,11.07
2023-02-01T01:09:17.016Z,10.27
2023-02-01T01:11:44.010Z,7.68
2023-02-01T01:14:12.290Z,13.20
2023-02-01T01:16:42.040Z,5.88
2023-02-01T01:19:11.745Z,9.95
2023-02-01T01:21:52.242Z,6.90
2023-02-01T01:24:19.118Z,11.02
2023-02-01T01:26:48.368Z,13.63
2023-02-01T01:29:28.425Z,13.57
2023-02-01T01:31:58.700Z,9.65
2023-02-01T01:34:31.854Z,11.07
2023-02-01T01:36:58.871Z,11.25
2023-02-01T01:39:30.595Z,12.90
2023-02-01T01:42:00.776Z,17.83
2023-02-01T01:45:08.006Z,6.65
2023-02-01T01:47:48.400Z,10.30
2023-02-01T01:50:20.266Z,11.68
2023-02-01T01:52:49.957Z,11.60
2023-02-01T01:55:18.934Z,9.43
2023-02-01T01:57:49.611Z,11.82
2023-02-01T02:00:22.047Z,13.25
2023-02-01T02:02:56.039Z,10.40
2023-02-01T02:05:26.561Z,15.93
2023-02-01T02:07:55.435Z,9.00
2023-02-01T02:10:53.274Z,16.52
2023-02-01T02:13:28.073Z,22.20
2023-02-01T02:16:10.879Z,14.82
2023-02-01T02:18:56.429Z,13.10
2023-02-01T02:21:48.058Z,15.95
2023-02-01T02:24:44.456Z,11.75
2023-02-01T02:27:53.549Z,13.68
2023-02-01T02:30:38.877Z,12.85
2023-02-01T02:33:27.669Z,11.65
2023-02-01T02:36:19.550Z,14.02
2023-02-01T02:39:08.197Z,13.95
2023-02-01T02:42:11.603Z,12.95
2023-02-01T02:45:06.521Z,13.30
2023-02-01T02:47:58.049Z,12.90
2023-02-01T02:50:58.349Z,20.98
2023-02-01T02:53:59.567Z,15.00
2023-02-01T02:56:48.095Z,20.48
2023-02-01T02:59:36.141Z,12.70
2023-02-01T03:02:21.792Z,8.70
2023-02-01T03:04:57.477Z,12.27
2023-02-01T03:07:46.125Z,7.50
2023-02-01T03:10:35.372Z,15.85
2023-02-01T03:13:06.420Z,10.70
2023-02-01T03:15:51.208Z,16.95
2023-02-01T03:18:25.215Z,11.98
2023-02-01T03:20:53.524Z,15.20
2023-02-01T03:23:23.012Z,15.75
2023-02-01T03:25:51.579Z,12.23
2023-02-01T03:28:22.199Z,18.30
2023-02-01T03:30:49.997Z,19.65
2023-02-01T03:33:23.299Z,16.25
2023-02-01T03:35:49.906Z,18.92
2023-02-01T03:38:24.115Z,13.57
2023-02-01T03:40:55.359Z,19.92
2023-02-01T03:43:27.587Z,10.48
2023-02-01T03:45:59.992Z,14.95
2023-02-01T03:48:28.826Z,10.68
2023-02-01T03:50:58.713Z,13.65
2023-02-01T03:53:27.820Z,13.07
2023-02-01T03:55:57.469Z,15.43
2023-02-01T03:58:25.187Z,10.48
2023-02-01T04:00:55.241Z,17.42
2023-02-01T04:03:23.104Z,12.02
2023-02-01T04:05:53.368Z,17.52
2023-02-01T04:08:24.714Z,14.73
2023-02-01T04:10:51.442Z,16.45
2023-02-01T04:13:18.274Z,8.82
2023-02-01T04:15:45.241Z,15.05
2023-02-01T04:18:12.019Z,12.10
2023-02-01T04:20:38.718Z,14.60
2023-02-01T04:23:05.643Z,14.63
2023-02-01T04:25:32.579Z,14.18
2023-02-01T04:28:02.351Z,17.65
2023-02-01T04:30:29.994Z,17.50
2023-02-01T04:32:57.893Z,14.80
2023-02-01T04:35:24.611Z,18.08
2023-02-01T04:37:55.059Z,15.43
2023-02-01T04:40:22.294Z,12.23
2023-02-01T04:42:49.514Z,13.95
2023-02-01T04:45:16.355Z,15.85
2023-02-01T04:47:47.629Z,12.93
2023-02-01T04:50:14.424Z,17.20
2023-02-01T04:52:41.655Z,12.00
2023-02-01T04:55:08.918Z,14.02
2023-02-01T04:57:35.831Z,18.58
2023-02-01T05:00:03.842Z,14.00
2023-02-01T05:02:30.796Z,11.50
2023-02-01T05:04:57.667Z,15.23
2023-02-01T05:07:24.448Z,14.82
2023-02-01T05:09:51.784Z,16.33
2023-02-01T05:12:37.371Z,17.48
2023-02-01T05:15:04.995Z,18.08
2023-02-01T05:17:32.690Z,18.85
2023-02-01T05:19:59.722Z,17.33
2023-02-01T05:22:26.515Z,11.98
2023-02-01T05:24:53.804Z,13.25
2023-02-01T05:27:20.528Z,20.60
2023-02-01T05:29:47.416Z,18.92
2023-02-01T05:32:22.012Z,14.73
2023-02-01T05:34:49.770Z,14.05
2023-02-01T05:37:16.426Z,11.20
2023-02-01T05:39:43.482Z,9.70
2023-02-01T05:42:11.022Z,13.57
2023-02-01T05:44:37.891Z,13.05
2023-02-01T05:47:05.067Z,17.30
2023-02-01T05:49:34.712Z,20.35
2023-02-01T05:52:01.664Z,15.40
2023-02-01T05:54:28.709Z,13.10
2023-02-01T05:56:56.828Z,17.70
2023-02-01T05:59:23.621Z,14.23
2023-02-01T06:01:50.384Z,14.15
2023-02-01T06:04:17.616Z,13.75
2023-02-01T06:06:44.426Z,13.90
2023-02-01T06:09:11.338Z,22.58
2023-02-01T06:11:38.168Z,13.13
2023-02-01T06:14:09.113Z,23.33
2023-02-01T06:16:36.017Z,15.45
2023-02-01T06:19:02.725Z,15.68
2023-02-01T06:21:29.666Z,8.00
2023-02-01T06:23:59.516Z,20.45
2023-02-01T06:26:26.791Z,21.45
2023-02-01T06:28:53.683Z,15.60
2023-02-01T06:31:20.886Z,18.88
2023-02-01T06:33:55.619Z,16.30
2023-02-01T06:36:22.469Z,19.52
2023-02-01T06:38:53.096Z,13.57
2023-02-01T06:41:21.806Z,15.80
2023-02-01T06:43:49.355Z,18.35
2023-02-01T06:46:17.442Z,18.05
2023-02-01T06:48:44.826Z,14.60
2023-02-01T06:51:22.914Z,12.60
2023-02-01T06:53:50.230Z,15.18
2023-02-01T06:56:17.415Z,14.73
2023-02-01T06:58:49.880Z,12.93
2023-02-01T07:01:17.672Z,10.95
2023-02-01T07:03:45.664Z,14.18
2023-02-01T07:06:15.131Z,8.32
2023-02-01T07:08:44.697Z,11.43
2023-02-01T07:11:13.218Z,13.70
2023-02-01T07:13:40.490Z,15.52
2023-02-01T07:16:15.241Z,14.07
2023-02-01T07:18:42.148Z,13.13
2023-02-01T07:21:09.443Z,14.73
2023-02-01T07:23:37.180Z,12.25
2023-02-01T07:26:10.801Z,15.57
2023-02-01T07:28:40.451Z,10.88
2023-02-01T07:31:20.204Z,14.77
2023-02-01T07:33:47.249Z,10.63
2023-02-01T07:36:18.382Z,11.18
2023-02-01T07:38:48.714Z,10.30
2023-02-01T07:41:16.652Z,12.88
2023-02-01T07:43:47.417Z,10.77
2023-02-01T07:46:16.789Z,17.02
2023-02-01T07:48:43.858Z,11.27
2023-02-01T07:51:13.462Z,11.15
2023-02-01T07:53:41.105Z,8.95
2023-02-01T07:56:15.445Z,11.60
2023-02-01T07:58:42.486Z,9.23
2023-02-01T08:01:21.195Z,7.20
2023-02-01T08:03:49.481Z,9.20
2023-02-01T08:06:17.059Z,8.25
2023-02-01T08:08:53.619Z,12.00
2023-02-01T08:11:21.568Z,13.45
2023-02-01T08:13:48.600Z,6.55
2023-02-01T08:16:17.168Z,11.32
2023-02-01T08:18:44.293Z,12.25
2023-02-01T08:21:17.054Z,8.05
2023-02-01T08:23:46.450Z,7.90
2023-02-01T08:26:19.755Z,7.13
2023-02-01T08:28:50.358Z,7.13
2023-02-01T08:31:24.075Z,15.82
2023-02-01T08:33:56.705Z,3.65
2023-02-01T08:36:25.037Z,10.80
2023-02-01T08:38:57.633Z,4.93
2023-02-01T08:41:27.943Z,7.15
2023-02-01T08:43:56.069Z,5.93
2023-02-01T08:46:23.599Z,11.13
2023-02-01T08:48:51.020Z,7.75
2023-02-01T08:51:20.270Z,6.38
2023-02-01T08:53:47.694Z,4.30
2023-02-01T08:56:16.055Z,3.45
2023-02-01T08:58:43.034Z,4.80
2023-02-01T09:01:16.430Z,4.35
2023-02-01T09:03:44.115Z,5.18
2023-02-01T09:06:13.687Z,7.13
2023-02-01T09:08:40.953Z,4.47
2023-02-01T09:11:12.662Z,2.58
2023-02-01T09:13:39.560Z,5.03
2023-02-01T09:16:06.931Z,3.95
2023-02-01T09:18:33.721Z,4.20
2023-02-01T09:21:00.473Z,2.25
2023-02-01T09:23:27.557Z,2.28
2023-02-01T09:25:54.495Z,2.15
2023-02-01T09:28:24.202Z,4.53
2023-02-01T09:30:51.148Z,3.10
2023-02-01T09:33:19.051Z,2.70
2023-02-01T09:35:45.874Z,0.55
2023-02-01T09:38:16.037Z,3.58
2023-02-01T09:40:47.373Z,1.13
2023-02-01T09:43:22.218Z,1.17
2023-02-01T09:45:53.735Z,1.80
2023-02-01T09:48:29.508Z,4.25
2023-02-01T09:50:58.677Z,1.65
2023-02-01T09:53:33.675Z,3.10
2023-02-01T09:56:08.738Z,2.35
2023-02-01T09:58:39.855Z,4.85
2023-02-01T10:01:15.322Z,4.47
2023-02-01T10:03:42.296Z,4.30
2023-02-01T10:06:46.757Z,2.92
2023-02-01T10:09:52.545Z,2.35
2023-02-01T10:12:35.092Z,2.53
2023-02-01T10:15:16.629Z,4.85
2023-02-01T10:17:59.112Z,4.30
2023-02-01T10:21:15.640Z,6.75
2023-02-01T10:24:17.266Z,5.68
2023-02-01T10:26:52.848Z,3.05
2023-02-01T10:29:26.421Z,4.55
2023-02-01T10:31:53.822Z,3.75
2023-02-01T10:34:29.721Z,2.08
2023-02-01T10:37:03.534Z,4.30
2023-02-01T10:39:30.503Z,2.40
2023-02-01T10:42:00.327Z,3.22
2023-02-01T10:44:29.937Z,3.00
2023-02-01T10:46:56.770Z,3.47
2023-02-01T10:49:36.752Z,2.55
2023-02-01T10:52:16.719Z,4.53
2023-02-01T10:54:44.448Z,4.35
2023-02-01T10:57:33.096Z,2.80
2023-02-01T11:00:14.318Z,4.50
2023-02-01T11:02:41.473Z,3.28
2023-02-01T11:05:13.421Z,3.72
2023-02-01T11:07:43.453Z,3.75
2023-02-01T11:10:39.811Z,4.32
2023-02-01T11:13:06.783Z,6.50
2023-02-01T11:15:33.416Z,3.30
2023-02-01T11:18:17.158Z,2.67
2023-02-01T11:20:44.391Z,5.15
2023-02-01T11:23:20.075Z,3.85
2023-02-01T11:25:58.775Z,4.22
2023-02-01T11:28:29.429Z,2.47
2023-02-01T11:30:58.296Z,3.53
2023-02-01T11:33:32.521Z,4.50
2023-02-01T11:36:00.177Z,9.27
2023-02-01T11:38:31.523Z,7.72
2023-02-01T11:41:15.289Z,3.10
2023-02-01T11:44:03.195Z,3.63
2023-02-01T11:46:34.973Z,5.25
2023-02-01T11:49:23.507Z,6.60
2023-02-01T11:52:09.073Z,7.53
2023-02-01T11:55:06.034Z,4.85
2023-02-01T11:58:30.322Z,4.72
2023-02-01T12:01:16.929Z,6.35
2023-02-01T12:04:10.807Z,6.60
2023-02-01T12:06:43.878Z,5.72
2023-02-01T12:09:36.097Z,4.35
2023-02-01T12:12:08.080Z,2.20
2023-02-01T12:14:51.015Z,3.58
2023-02-01T12:17:27.167Z,6.97
2023-02-01T12:20:25.082Z,6.55
2023-02-01T12:23:17.315Z,12.30
2023-02-01T12:26:08.617Z,4.00
2023-02-01T12:29:13.543Z,8.32
2023-02-01T12:32:13.407Z,8.45
2023-02-01T12:35:19.150Z,5.53
2023-02-01T12:38:17.174Z,7.45
2023-02-01T12:41:05.210Z,6.03
2023-02-01T12:44:25.951Z,5.00
2023-02-01T12:47:08.254Z,6.50
2023-02-01T12:49:41.647Z,7.78
2023-02-01T12:52:19.119Z,9.65
2023-02-01T12:55:07.978Z,4.88
2023-02-01T12:57:45.191Z,6.30
2023-02-01T13:00:24.925Z,9.05
2023-02-01T13:03:11.769Z,4.45
2023-02-01T13:05:56.678Z,6.53
2023-02-01T13:08:47.588Z,6.30
2023-02-01T13:11:40.428Z,6.72
2023-02-01T13:14:22.912Z,5.70
2023-02-01T13:16:56.831Z,3.40
2023-02-01T13:19:59.997Z,4.20
2023-02-01T13:25:55.420Z,4.15
2023-02-01T13:28:25.143Z,7.50
2023-02-01T13:31:01.014Z,4.97
2023-02-01T13:34:01.510Z,5.50
2023-02-01T13:36:44.649Z,10.57
2023-02-01T13:39:56.130Z,8.50
2023-02-01T13:42:28.681Z,5.65
2023-02-01T13:45:02.039Z,9.85
2023-02-01T13:47:36.713Z,6.68
2023-02-01T13:50:19.545Z,6.55
2023-02-01T13:52:54.070Z,8.73
2023-02-01T13:55:31.939Z,9.65
2023-02-01T13:58:06.188Z,5.78
2023-02-01T14:00:38.170Z,3.70
2023-02-01T14:03:50.540Z,7.45
2023-02-01T14:06:40.744Z,8.60
2023-02-01T14:09:18.209Z,8.75
2023-02-01T14:11:58.882Z,8.15
2023-02-01T14:14:39.244Z,12.07
2023-02-01T14:17:20.603Z,6.70
2023-02-01T14:19:47.599Z,6.65
2023-02-01T14:22:28.198Z,16.08
2023-02-01T14:25:02.649Z,8.32
2023-02-01T14:27:42.407Z,8.43
2023-02-01T14:30:16.787Z,9.00
2023-02-01T14:32:48.355Z,8.20
2023-02-01T14:35:23.975Z,9.68
2023-02-01T14:38:04.010Z,11.32
2023-02-01T14:40:39.724Z,10.20
2023-02-01T14:43:23.649Z,11.27
2023-02-01T14:45:59.082Z,4.75
2023-02-01T14:48:25.879Z,11.43
2023-02-01T14:50:53.615Z,3.63
2023-02-01T14:53:35.166Z,10.85
2023-02-01T14:56:08.740Z,5.57
2023-02-01T14:58:52.961Z,8.05
2023-02-01T15:01:25.685Z,5.30
2023-02-01T15:04:23.150Z,8.38
2023-02-01T15:07:00.154Z,6.97
2023-02-01T15:09:39.075Z,6.30
2023-02-01T15:12:14.201Z,5.45
2023-02-01T15:14:52.551Z,2.25
2023-02-01T15:17:26.577Z,2.97
2023-02-01T15:20:02.835Z,6.40
2023-02-01T15:22:32.463Z,3.38
2023-02-01T15:25:02.020Z,4.88
2023-02-01T15:27:30.374Z,4.63
2023-02-01T15:30:10.108Z,1.25
2023-02-01T15:32:40.092Z,3.40
2023-02-01T15:35:27.426Z,0.95
2023-02-01T15:37:54.346Z,5.10
2023-02-01T15:40:23.472Z,1.45
2023-02-01T15:42:56.008Z,1.98
2023-02-01T15:45:31.556Z,1.85
2023-02-01T15:47:59.711Z,3.20
2023-02-01T15:50:27.928Z,3.33
2023-02-01T15:52:56.950Z,1.17
2023-02-01T15:55:26.011Z,0.77
2023-02-01T15:57:53.313Z,1.25
2023-02-01T16:00:28.120Z,1.40
2023-02-01T16:02:58.440Z,0.70
2023-02-01T16:05:40.027Z,0.65
2023-02-01T16:08:16.150Z,1.17
2023-02-01T16:10:47.977Z,1.33
2023-02-01T16:13:15.978Z,0.57
2023-02-01T16:15:42.910Z,0.40
2023-02-01T16:18:17.809Z,0.40
2023-02-01T16:20:45.682Z,0.65
2023-02-01T16:23:12.567Z,0.43
2023-02-01T16:25:40.238Z,0.50
2023-02-01T16:28:07.745Z,1.33
2023-02-01T16:30:34.781Z,0.30
2023-02-01T16:33:09.151Z,0.43
2023-02-01T16:35:37.874Z,0.40
2023-02-01T16:38:17.445Z,0.43
2023-02-01T16:40:44.573Z,0.40
2023-02-01T16:43:25.428Z,0.40
2023-02-01T16:45:53.964Z,0.30
2023-02-01T16:48:24.651Z,0.50
2023-02-01T16:50:58.233Z,0.35
2023-02-01T16:53:27.039Z,0.52
2023-02-01T16:55:56.980Z,0.43
2023-02-01T16:58:26.059Z,0.60
2023-02-01T17:00:55.921Z,0.57
2023-02-01T17:03:23.213Z,1.83
2023-02-01T17:05:53.861Z,1.23
2023-02-01T17:08:34.778Z,1.73
2023-02-01T17:11:02.594Z,1.55
2023-02-01T17:13:29.292Z,1.08
2023-02-01T17:16:31.852Z,0.93
2023-02-01T17:19:05.522Z,2.38
2023-02-01T17:21:44.651Z,0.75
2023-02-01T17:24:15.448Z,7.47
2023-02-01T17:26:43.353Z,0.82
2023-02-01T17:29:10.571Z,7.32
2023-02-01T17:31:40.262Z,3.72
2023-02-01T17:34:07.080Z,4.40
2023-02-01T17:36:36.681Z,2.65
2023-02-01T17:39:06.479Z,2.55
2023-02-01T17:41:33.867Z,3.25
2023-02-01T17:44:01.033Z,2.72
2023-02-01T17:46:28.535Z,1.25
2023-02-01T17:48:58.682Z,1.00
2023-02-01T17:51:28.188Z,1.48
2023-02-01T17:53:55.192Z,2.95
2023-02-01T17:56:25.734Z,3.15
2023-02-01T17:58:52.769Z,3.53
2023-02-01T18:01:26.020Z,6.45
2023-02-01T18:03:55.855Z,3.47
2023-02-01T18:06:26.140Z,5.32
2023-02-01T18:08:53.863Z,2.85
2023-02-01T18:11:25.428Z,1.65
2023-02-01T18:13:55.919Z,2.15
2023-02-01T18:16:28.021Z,3.53
2023-02-01T18:18:54.907Z,3.75
2023-02-01T18:21:22.918Z,2.13
2023-02-01T18:23:50.085Z,4.90
2023-02-01T18:26:19.022Z,2.45
2023-02-01T18:28:46.044Z,3.53
2023-02-01T18:31:27.523Z,3.47
2023-02-01T18:33:57.039Z,4.35
2023-02-01T18:36:24.663Z,4.85
2023-02-01T18:38:51.836Z,3.70
2023-02-01T18:41:25.587Z,6.20
2023-02-01T18:43:52.954Z,6.05
2023-02-01T18:46:23.090Z,6.03
2023-02-01T18:48:50.161Z,9.65
2023-02-01T18:51:20.060Z,4.45
2023-02-01T18:53:48.348Z,4.53
2023-02-01T18:56:17.566Z,6.65
2023-02-01T18:58:44.922Z,4.63
2023-02-01T19:01:17.537Z,6.30
2023-02-01T19:03:54.646Z,1.83
2023-02-01T19:06:38.420Z,6.53
2023-02-01T19:09:05.090Z,6.60
2023-02-01T19:11:31.909Z,2.80
2023-02-01T19:13:58.687Z,5.78
2023-02-01T19:16:25.675Z,5.53
2023-02-01T19:18:53.305Z,3.85
2023-02-01T19:21:20.088Z,5.85
2023-02-01T19:23:48.338Z,3.90
2023-02-01T19:26:17.497Z,7.03
2023-02-01T19:28:47.226Z,5.18
2023-02-01T19:31:14.350Z,3.35
2023-02-01T19:33:41.183Z,7.38
2023-02-01T19:36:10.358Z,4.20
2023-02-01T19:38:37.480Z,5.57
2023-02-01T19:41:04.503Z,6.75
2023-02-01T19:43:33.443Z,6.05
2023-02-01T19:46:03.093Z,4.45
2023-02-01T19:48:31.563Z,8.80
2023-02-01T19:50:59.401Z,7.90
2023-02-01T19:53:28.320Z,9.13
2023-02-01T19:55:57.000Z,6.43
2023-02-01T19:58:25.580Z,8.25
2023-02-01T20:00:55.429Z,13.35
2023-02-01T20:03:24.994Z,11.65
2023-02-01T20:05:55.975Z,10.45
2023-02-01T20:08:24.301Z,5.30
2023-02-01T20:10:51.470Z,4.53
2023-02-01T20:13:18.463Z,3.55
2023-02-01T20:15:45.411Z,11.75
2023-02-01T20:18:17.839Z,6.18
2023-02-01T20:20:47.365Z,7.15
2023-02-01T20:23:18.977Z,5.18
2023-02-01T20:25:46.687Z,3.53
2023-02-01T20:28:13.535Z,5.32
2023-02-01T20:30:40.383Z,5.53
2023-02-01T20:33:07.072Z,10.15
2023-02-01T20:35:33.756Z,10.00
2023-02-01T20:38:02.082Z,8.25
2023-02-01T20:40:29.995Z,4.32
2023-02-01T20:42:58.162Z,6.32
2023-02-01T20:45:26.798Z,8.68
2023-02-01T20:47:54.322Z,5.55
2023-02-01T20:50:21.289Z,7.93
2023-02-01T20:52:52.788Z,5.68
2023-02-01T20:55:19.678Z,5.93
2023-02-01T20:57:51.288Z,6.68
2023-02-01T21:00:18.817Z,3.92
2023-02-01T21:02:45.539Z,5.60
2023-02-01T21:05:12.592Z,6.32
2023-02-01T21:07:39.161Z,3.28
2023-02-01T21:10:06.642Z,5.40
2023-02-01T21:12:33.772Z,10.68
2023-02-01T21:15:00.414Z,5.50
2023-02-01T21:17:28.704Z,4.13
2023-02-01T21:19:55.753Z,3.40
2023-02-01T21:22:23.628Z,8.75
2023-02-01T21:24:50.466Z,4.65
2023-02-01T21:27:17.433Z,6.03
2023-02-01T21:29:44.097Z,4.72
2023-02-01T21:32:14.890Z,6.70
2023-02-01T21:34:41.658Z,8.07
2023-02-01T21:37:08.678Z,6.07
2023-02-01T21:39:35.467Z,7.70
2023-02-01T21:42:14.005Z,6.85
2023-02-01T21:44:41.617Z,4.60
2023-02-01T21:47:10.011Z,7.82
2023-02-01T21:49:38.903Z,8.10
2023-02-01T21:52:05.993Z,3.15
2023-02-01T21:54:32.636Z,6.75
2023-02-01T21:56:59.584Z,11.52
2023-02-01T21:59:26.395Z,8.52
2023-02-01T22:01:53.597Z,7.53
2023-02-01T22:04:20.349Z,5.97
2023-02-01T22:06:49.835Z,4.30
2023-02-01T22:09:19.074Z,4.53
2023-02-01T22:11:46.270Z,5.95
2023-02-01T22:14:13.914Z,12.27
2023-02-01T22:16:41.685Z,4.72
2023-02-01T22:19:15.461Z,5.72
2023-02-01T22:21:45.403Z,5.53
2023-02-01T22:24:16.030Z,12.30
2023-02-01T22:26:43.358Z,5.55
2023-02-01T22:29:13.171Z,9.15
2023-02-01T22:31:40.418Z,6.78
2023-02-01T22:34:07.816Z,6.65
2023-02-01T22:36:34.600Z,5.57
2023-02-01T22:39:01.303Z,9.45
2023-02-01T22:41:28.070Z,9.77
2023-02-01T22:43:54.764Z,9.25
2023-02-01T22:46:25.551Z,6.90
2023-02-01T22:48:52.620Z,6.47
2023-02-01T22:51:30.444Z,8.13
2023-02-01T22:53:57.871Z,10.43
2023-02-01T22:56:26.040Z,4.95
2023-02-01T22:59:03.911Z,10.55
2023-02-01T23:01:30.993Z,8.18
2023-02-01T23:03:59.150Z,9.00
2023-02-01T23:06:27.199Z,9.27
2023-02-01T23:08:58.247Z,12.98
2023-02-01T23:11:28.508Z,18.52
2023-02-01T23:13:58.544Z,8.30
2023-02-01T23:16:25.555Z,7.70
2023-02-01T23:18:52.328Z,13.65
2023-02-01T23:21:22.040Z,9.98
2023-02-01T23:23:51.299Z,8.15
2023-02-01T23:26:18.772Z,13.95
2023-02-01T23:28:45.781Z,6.03
2023-02-01T23:31:19.315Z,8.13
2023-02-01T23:33:46.559Z,12.27
2023-02-01T23:36:16.346Z,10.82
2023-02-01T23:38:43.966Z,8.38
2023-02-01T23:41:15.126Z,7.65
2023-02-01T23:44:00.642Z,10.57
2023-02-01T23:46:41.800Z,6.55
2023-02-01T23:49:09.534Z,15.27
2023-02-01T23:51:37.021Z,13.07
2023-02-01T23:54:11.665Z,12.18
2023-02-01T23:56:43.726Z,10.85
2023-02-01T23:59:22.636Z,13.50
